Terminal Aerodrome Forecast
Issued by NWS

Home | Current Version | Previous Version | Text Only | Print | Product List | Glossary On
Versions: 1 2 3 4 5 6 7 8 9 10 11 12 13 14 15 16 17 18 19 20 21 22 23 24 25 26 27 28 29
000
FTUS41 KBUF 050900 AAA
TAFJHW
TAF AMD
KJHW 050915Z 0509/0606 34014G20KT 5SM -SHSN BKN015
      TEMPO 0509/0510 1 1/2SM -SN BKN008
     FM051000 33010KT P6SM SCT015 OVC025
     FM051500 31010G18KT P6SM SCT035 BKN060
     FM051900 30010KT P6SM BKN045
     FM060000 29006KT P6SM BKN150
     FM060400 VRB03KT P6SM SCT110
      AMD LTD TO CLD VIS AND WIND=

USA.gov is the U.S. government's official web portal to all federal, state and local government web resources and services.